Tiempo atmosférico en la estación meteorológica de Boadilla Fuente San Esteban, Salamanca (785 m.)



Fecha
DESCASC
Temp. máxima en grados centígrados (hora)
DESCASC
Temp. mínima en grados centígrados (hora)
DESCASC
Temp. media en grados centígrados
DESCASC
Racha de viento máxima en m/sg (hora)
DESCASC
Velocidad máxima media en intervalos de 10 minutos(hora)
DESCASC
Precipitaciones diarias en mm
DESCASC
Precipitaciones de 00:00 a 06:00 en mm
DESCASC
Precipitaciones de 06:00 a 12:00 en mm
DESCASC
Precipitaciones de 12:00 a 18:00 en mm
DESCASC
Precipitaciones de 18:00 a 24:00 en mm
DESCASC
30-11-2020 13.4 (15:00) 4.8 (23:50) 9.1 6.39 (12:00) 4.72 (12:00) 6.6 6.6 0 0 0
29-11-2020 13.4 (14:10) 7.3 (00:00) 10.3 8.06 (15:00) 5.28 (14:40) 3.4 0 0.4 0 3
28-11-2020 11.9 (15:10) 2.9 (00:00) 7.4 8.06 (21:10) 4.72 (17:00) 0 0 0 0 0
27-11-2020 13.2 (15:10) 4.3 (00:00) 8.8 9.17 (15:10) 6.67 (16:10) 0.2 0.2 0 0 0
26-11-2020 10 (15:50) 7.2 (00:00) 8.6 8.61 (01:00) 5.83 (01:00) 2.8 0.4 2 0.2 0.2
25-11-2020 10.1 (17:00) 4.7 (00:00) 7.4 12.22 (12:40) 8.61 (12:50) 1 0 1 0 0
24-11-2020 13.1 (15:20) 1 (00:00) 7.1 7.5 (15:30) 4.72 (15:30) 0 0 0 0 0
23-11-2020 15.9 (15:50) 0.2 (00:00) 8 3.33 (19:30) 2.78 (19:30) 0 0 0 0 0
22-11-2020 16.3 (15:30) 0.4 (00:00) 8.3 3.89 (13:00) 2.5 (08:10) 0 0 0 0 0
21-11-2020 14.1 (16:20) -0.1 (00:00) 7 5.83 (00:20) 4.17 (10:30) 0 0 0 0 0
20-11-2020 13.4 (15:30) 3.7 (00:00) 8.5 9.44 (15:00) 7.5 (16:10) 0 0 0 0 0
19-11-2020 18.8 (14:40) 6.6 (00:00) 12.7 7.22 (12:00) 5 (12:10) 0 0 0 0 0
18-11-2020 21.2 (15:30) 4.7 (00:00) 13 4.72 (15:50) 3.33 (15:50) 0 0 0 0 0
17-11-2020 20.4 (16:10) 3.3 (00:00) 11.8 3.61 (16:20) 2.22 (16:30) 0 0 0 0 0
16-11-2020 16.2 (16:00) 6.8 (00:00) 11.5 3.89 (02:20) 2.5 (01:30) 0 0 0 0 0
15-11-2020 16.8 (14:20) 11.4 (00:00) 14.1 11.67 (16:00) 7.22 (09:50) 0 0 0 0 0
14-11-2020 15.4 (13:20) 7.2 (00:00) 11.3 8.33 (12:50) 6.11 (12:50) 0 0 0 0 0
13-11-2020 14.9 (15:50) 5.6 (00:00) 10.2 5.28 (12:10) 3.61 (12:10) 0 0 0 0 0
12-11-2020 15.1 (14:50) 5.4 (00:00) 10.3 3.89 (03:40) 2.5 (03:40) 0 0 0 0 0
11-11-2020 15.3 (16:00) 4.3 (00:00) 9.8 6.67 (15:20) 4.17 (15:20) 0 0 0 0 0
10-11-2020 13.9 (15:40) 7.5 (00:00) 10.7 6.94 (21:20) 4.72 (21:20) 0.2 0.2 0 0 0
09-11-2020 14.2 (15:50) 7.3 (00:00) 10.8 6.11 (14:20) 3.89 (11:00) 0.2 0.2 0 0 0
08-11-2020 14.4 (12:20) 9.9 (00:00) 12.1 11.11 (12:50) 6.67 (10:00) 17 0 0 4.6 12.4
07-11-2020 14 (13:40) 9.2 (00:00) 11.6 11.11 (14:00) 6.67 (14:40) 2 2 0 0 0
06-11-2020 17.7 (14:20) 7.9 (00:00) 12.8 15 (18:10) 9.44 (18:10) 7.6 4.8 0.2 0 2.6
05-11-2020 14 (14:20) 6.3 (00:00) 10.2 12.5 (10:30) 8.06 (01:00) 5.2 1.2 0 1 3
04-11-2020 8.4 (16:20) 2.1 (00:00) 5.2 13.61 (16:40) 9.72 (16:30) 0.4 0 0 0 0.4
03-11-2020 14.6 (00:00) 5.7 (00:00) 10.2 10.83 (13:50) 7.5 (12:10) 0 0 0 0 0
02-11-2020 18.1 (15:00) 12.3 (00:00) 15.2 4.44 (11:10) 3.06 (11:10) 0 0 0 0 0

Gráficas

Temp. máximas Temp. mínimas Temp. medias Precipitaciones Rachas de viento máximas Velocidades máximas media en intervalos de 10 minutos

Datos horarios

Fecha y hora oficial Temperatura (ºC) Velocidad del viento (km/h) Dirección del viento Racha (km/h) Dirección de racha Precipitación (mm) Presión (hPa) Tendencia (hPa) Humedad (%)
2020-12-01 23:00:00 2.2 4 Noroeste 9 Este 0 -- -- 85
2020-12-01 22:00:00 3.9 6 Sudeste 9 Sudeste 0 -- -- 78
2020-12-01 21:00:00 3.5 0 Calma 7 Este 0 -- -- 79
2020-12-01 20:00:00 5.7 5 Este 9 Este 0 -- -- 68
2020-12-01 19:00:00 7.1 3 Este 8 Nordeste 0 -- -- 65
2020-12-01 18:00:00 9.2 9 Nordeste 16 Nordeste 0 -- -- 62
2020-12-01 17:00:00 11 14 Nordeste 21 Nordeste 0 -- -- 53
2020-12-01 16:00:00 11.2 17 Nordeste 24 Nordeste 0 -- -- 49
2020-12-01 15:00:00 11.4 16 Nordeste 22 Nordeste 0 -- -- 45
2020-12-01 14:00:00 10.7 12 Nordeste 28 Nordeste 0 -- -- 51
2020-12-01 13:00:00 9.6 18 Nordeste 24 Nordeste 0 -- -- 59
2020-12-01 12:00:00 8.1 12 Nordeste 16 Nordeste 0 -- -- 72
2020-12-01 11:00:00 6.5 11 Nordeste 15 Nordeste 0 -- -- 89
2020-12-01 10:00:00 4.1 6 Nordeste 10 Nordeste 0 -- -- 99
2020-12-01 09:00:00 1.5 5 Nordeste 8 Nordeste 0 -- -- 98
2020-12-01 08:00:00 1.7 7 Este 8 Este 0 -- -- 98
2020-12-01 07:00:00 2.3 6 Este 9 Este 0 -- -- 99
2020-12-01 06:00:00 2.3 3 Este 10 Norte 0 -- -- 98
2020-12-01 05:00:00 2.2 5 Nordeste 10 Este 0 -- -- 96
2020-12-01 04:00:00 3.1 9 Nordeste 10 Este 0 -- -- 98
2020-12-01 03:00:00 2.5 6 Norte 9 Norte 0 -- -- 96
2020-12-01 02:00:00 4.3 3 Este 8 Este 0 -- -- 96
2020-12-01 01:00:00 4 3 Este 8 Este 0 -- -- 95
2020-12-01 00:00:00 5.1 6 Este 9 Este 0 -- -- 95
2020-11-30 23:00:00 6.2 2 Nordeste 17 Este 0 -- -- 90
2020-11-30 22:00:00 6.9 8 Este 13 Este 0 -- -- 90
2020-11-30 21:00:00 8 10 Este 13 Este 0 -- -- 87
2020-11-30 20:00:00 8.8 3 Este 15 Este 0 -- -- 86
2020-11-30 19:00:00 9.4 10 Nordeste 20 Nordeste 0 -- -- 84
2020-11-30 18:00:00 10.9 16 Nordeste 23 Nordeste 0 -- -- 76
2020-11-30 17:00:00 12.8 16 Nordeste 22 Nordeste 0 -- -- 73
2020-11-30 16:00:00 12.9 15 Nordeste 22 Nordeste 0 -- -- 70
2020-11-30 15:00:00 13.4 13 Nordeste 20 Este 0 -- -- 74
2020-11-30 14:00:00 11.9 14 Nordeste 18 Nordeste 0 -- -- 82
2020-11-30 13:00:00 10.7 10 Nordeste 23 Este 0 -- -- 85
2020-11-30 12:00:00 11 17 Este 23 Este 0 -- -- 86
2020-11-30 11:00:00 9.1 9 Nordeste 14 Este 0 -- -- 92
2020-11-30 10:00:00 7.7 8 Este 19 Este 0 -- -- 97
2020-11-30 09:00:00 6.1 13 Este 19 Este 0 -- -- 97
2020-11-30 08:00:00 6.3 10 Este 12 Este 0 -- -- 98
2020-11-30 07:00:00 7.3 4 Este 12 Este 0 -- -- 98
2020-11-30 06:00:00 7.5 13 Este 19 Este 0.2 -- -- 98
2020-11-30 05:00:00 7.7 5 Este 10 Este 0 -- -- 98
2020-11-30 04:00:00 7.7 3 Este 8 Nordeste 0 -- -- 98
2020-11-30 03:00:00 8 5 Nordeste 7 Norte 1.8 -- -- 98
2020-11-30 02:00:00 8 4 Norte 7 Norte 2 -- -- 98
2020-11-30 01:00:00 8 6 Noroeste 16 Oeste 2.6 -- -- 97
2020-11-30 00:00:00 8.5 7 Oeste 12 Oeste 2.8 -- -- 96
2020-11-29 23:00:00 8.8 4 Oeste 13 Oeste 0.2 -- -- 93
2020-11-29 22:00:00 9.1 8 Este 14 Nordeste 0 -- -- 89
2020-11-29 21:00:00 9.3 9 Nordeste 18 Nordeste 0 -- -- 88
2020-11-29 20:00:00 9.7 8 Nordeste 12 Este 0 -- -- 85
2020-11-29 19:00:00 10.3 10 Nordeste 18 Nordeste 0 -- -- 82
2020-11-29 18:00:00 11.8 6 Sudeste 10 Sur 0 -- -- 69
2020-11-29 17:00:00 12.8 8 Sur 21 Sur 0 -- -- 63
2020-11-29 16:00:00 13.4 16 Sudeste 26 Sudeste 0 -- -- 60
2020-11-29 15:00:00 13.3 16 Sudeste 29 Sudeste 0 -- -- 66
2020-11-29 14:00:00 13.1 12 Sudeste 23 Sudeste 0 -- -- 66
2020-11-29 13:00:00 12 14 Sur 24 Sudeste 0 -- -- 76
2020-11-29 12:00:00 10.7 8 Este 14 Este 0 -- -- 85
2020-11-29 11:00:00 9.2 8 Nordeste 13 Nordeste 0 -- -- 91
2020-11-29 10:00:00 8.6 8 Sudeste 15 Sudeste 0 -- -- 90
2020-11-29 09:00:00 7.9 10 Este 17 Sudeste 0.2 -- -- 93
2020-11-29 08:00:00 7.5 6 Este 11 Este 0.2 -- -- 94
2020-11-29 07:00:00 7.4 6 Este 15 Este 0 -- -- 87
2020-11-29 06:00:00 7.6 8 Este 15 Sudeste 0 -- -- 86
2020-11-29 05:00:00 7.4 5 Sudeste 10 Este 0 -- -- 86
2020-11-29 04:00:00 7.9 7 Este 20 Sudeste 0 -- -- 86
2020-11-29 03:00:00 7.8 8 Sudeste 21 Sudeste 0 -- -- 85
2020-11-29 02:00:00 8.4 7 Sudeste 19 Este 0 -- -- 83
2020-11-29 01:00:00 9.4 12 Este 27 Sudeste 0 -- -- 78
2020-11-29 00:00:00 8.9 15 Sudeste 24 Sudeste 0 -- -- 80
2020-11-28 23:00:00 8.3 8 Sur 14 Sur 0 -- -- 81
2020-11-28 22:00:00 8.4 6 Sudeste 29 Sudeste 0 -- -- 80
2020-11-28 21:00:00 7.9 10 Sudeste 17 Sudeste 0 -- -- 84
2020-11-28 20:00:00 7.9 12 Sur 19 Sudeste 0 -- -- 84
2020-11-28 19:00:00 8.4 11 Sudeste 16 Sudeste 0 -- -- 82
2020-11-28 18:00:00 9.4 14 Sudeste 24 Sudeste 0 -- -- 78
2020-11-28 17:00:00 10.2 17 Sur 25 Sudeste 0 -- -- 75
2020-11-28 16:00:00 11.4 13 Sudoeste 22 Sudoeste 0 -- -- 71
2020-11-28 15:00:00 11.7 14 Sudoeste 22 Sudoeste 0 -- -- 74
2020-11-28 14:00:00 10.7 8 Oeste 14 Sudoeste 0 -- -- 76
2020-11-28 13:00:00 10.7 8 Sudoeste 17 Sudoeste 0 -- -- 76
2020-11-28 12:00:00 10.6 7 Sudoeste 14 Oeste 0 -- -- 78
2020-11-28 11:00:00 8.4 6 Sudeste 10 Sudeste 0 -- -- 91
2020-11-28 10:00:00 6.6 4 Sudeste 8 Este 0 -- -- 98
2020-11-28 09:00:00 4.8 0 Calma 5 Noroeste 0 -- -- 98
2020-11-28 08:00:00 4.6 3 Oeste 5 Sudoeste 0 -- -- 98
2020-11-28 07:00:00 4.4 0 Calma 6 Noroeste 0 -- -- 98
2020-11-28 06:00:00 4.4 0 Calma 10 Sudeste 0 -- -- 98
2020-11-28 05:00:00 4.5 5 Sudeste 8 Sudeste 0 -- -- 98
2020-11-28 04:00:00 4.1 3 Sur 6 Sudoeste 0 -- -- 98
2020-11-28 03:00:00 3.3 5 Este 7 Este 0 -- -- 97
2020-11-28 02:00:00 3.3 3 Sur 9 Sur 0 -- -- 96
2020-11-28 01:00:00 3.2 0 Calma 5 Sur 0 -- -- 95
2020-11-28 00:00:00 4.3 3 Sudoeste 6 Sudoeste 0 -- -- 93
2020-11-27 23:00:00 5.5 3 Sur 5 Sudoeste 0 -- -- 94
2020-11-27 22:00:00 5.6 2 Oeste 5 Sudoeste 0 -- -- 92
2020-11-27 21:00:00 5.7 4 Oeste 9 Oeste 0 -- -- 88
2020-11-27 20:00:00 7.3 5 Este 13 Este 0 -- -- 83
2020-11-27 19:00:00 8.3 10 Nordeste 25 Este 0 -- -- 80
2020-11-27 18:00:00 9.3 17 Este 28 Nordeste 0 -- -- 79
2020-11-27 17:00:00 11.3 16 Nordeste 31 Nordeste 0 -- -- 72
2020-11-27 16:00:00 12.4 24 Nordeste 33 Este 0 -- -- 72
2020-11-27 15:00:00 13.1 19 Este 32 Este 0 -- -- 68
2020-11-27 14:00:00 12.5 19 Nordeste 27 Nordeste 0 -- -- 75
2020-11-27 13:00:00 10.5 14 Nordeste 21 Nordeste 0 -- -- 87
2020-11-27 12:00:00 7.8 12 Nordeste 25 Nordeste 0 -- -- 95
2020-11-27 11:00:00 7 16 Nordeste 26 Nordeste 0 -- -- 95
2020-11-27 10:00:00 6.6 18 Nordeste 23 Nordeste 0 -- -- 97
2020-11-27 09:00:00 5.7 5 Este 12 Este 0 -- -- 99
2020-11-27 08:00:00 4.4 2 Este 12 Nordeste 0 -- -- 99
2020-11-27 07:00:00 5 3 Nordeste 15 Norte 0 -- -- 99
2020-11-27 06:00:00 5.4 7 Norte 13 Norte 0 -- -- 98
2020-11-27 05:00:00 5.8 6 Este 13 Este 0 -- -- 99
2020-11-27 04:00:00 4.9 4 Nordeste 10 Nordeste 0 -- -- 99
2020-11-27 03:00:00 5.3 4 Nordeste 5 Nordeste 0 -- -- 98
2020-11-27 02:00:00 6.2 4 Sur 6 Sur 0 -- -- 98
2020-11-27 01:00:00 6.1 7 Este 9 Este 0.2 -- -- 98
2020-11-27 00:00:00 7.6 3 Nordeste 5 Nordeste 0 -- -- 97
2020-11-26 23:00:00 7.8 0 Calma 6 Nordeste 0 -- -- 97
2020-11-26 22:00:00 7.8 0 Calma 6 Sudoeste 0 -- -- 97
2020-11-26 21:00:00 7.7 4 Sudoeste 6 Sudoeste 0.2 -- -- 97
2020-11-26 20:00:00 7.7 4 Sudoeste 5 Sudoeste 0 -- -- 97
2020-11-26 19:00:00 7.7 3 Sudoeste 4 Sudoeste 0 -- -- 94
2020-11-26 18:00:00 9.2 3 Sudoeste 6 Sudoeste 0 -- -- 92
2020-11-26 17:00:00 9.8 3 Sudoeste 8 Noroeste 0 -- -- 90
2020-11-26 16:00:00 10 6 Noroeste 9 Noroeste 0 -- -- 90
2020-11-26 15:00:00 9.7 4 Noroeste 6 Noroeste 0 -- -- 89
2020-11-26 14:00:00 9.5 3 Oeste 6 Oeste 0.2 -- -- 93
2020-11-26 13:00:00 9.3 4 Nordeste 10 Nordeste 0 -- -- 94
2020-11-26 12:00:00 9.2 5 Este 13 Nordeste 0 -- -- 93
2020-11-26 11:00:00 9 8 Este 18 Este 0 -- -- 94
2020-11-26 10:00:00 8.5 4 Este 10 Sudeste 0.2 -- -- 94
2020-11-26 09:00:00 8.2 8 Este 24 Este 0.2 -- -- 95
2020-11-26 08:00:00 7.8 5 Este 9 Nordeste 1 -- -- 96
2020-11-26 07:00:00 7.9 3 Este 8 Nordeste 0.6 -- -- 95
2020-11-26 06:00:00 8.1 2 Este 10 Este 0 -- -- 94
2020-11-26 05:00:00 8.2 7 Este 12 Este 0 -- -- 93
2020-11-26 04:00:00 8.3 8 Este 19 Este 0.2 -- -- 93
2020-11-26 03:00:00 8.9 11 Sudeste 20 Este 0.2 -- -- 89
2020-11-26 02:00:00 9.1 7 Este 29 Sudeste 0 -- -- 88
2020-11-26 01:00:00 9.1 21 Sudeste 31 Sudeste 0 -- -- 89
2020-11-26 00:00:00 9.7 8 Sur 21 Sudeste 0 -- -- 87
2020-11-25 23:00:00 9.6 10 Sudeste 29 Sudeste 0 -- -- 87
2020-11-25 22:00:00 9.9 21 Sudeste 33 Sudeste 0 -- -- 84
2020-11-25 21:00:00 9.7 21 Sudeste 31 Sudeste 0 -- -- 85
2020-11-25 20:00:00 9.6 15 Sudeste 36 Sudeste 0 -- -- 83
2020-11-25 19:00:00 9.5 8 Sudeste 22 Sudeste 0 -- -- 84
2020-11-25 18:00:00 9.5 16 Sudeste 41 Sur 0 -- -- 84
2020-11-25 17:00:00 10.1 28 Sur 41 Sudeste 0 -- -- 79
2020-11-25 16:00:00 9.4 12 Sudeste 28 Sudeste 0 -- -- 85
2020-11-25 15:00:00 9 17 Sudeste 30 Sudeste 0 -- -- 85
2020-11-25 14:00:00 9.2 17 Sudeste 44 Sur 0 -- -- 84
2020-11-25 13:00:00 9.4 26 Sudeste 44 Sudeste 0 -- -- 83
2020-11-25 12:00:00 9.6 21 Sudeste 30 Sudeste 0 -- -- 80
2020-11-25 11:00:00 9.3 16 Sur 24 Sudeste 0 -- -- 82
2020-11-25 10:00:00 8.6 7 Sur 17 Sur 0 -- -- 86
2020-11-25 09:00:00 8.2 11 Sudeste 20 Sur 0 -- -- 87
2020-11-25 08:00:00 8.1 10 Sur 27 Sur 0 -- -- 88
2020-11-25 07:00:00 8 9 Sur 15 Sur 1 -- -- 90
2020-11-25 06:00:00 6.4 5 Este 8 Este 0 -- -- 90
2020-11-25 05:00:00 5.1 4 Sudeste 5 Sudoeste 0 -- -- 92
2020-11-25 04:00:00 5.6 4 Oeste 16 Sudeste 0 -- -- 87
2020-11-25 03:00:00 6.6 11 Sur 18 Sur 0 -- -- 87
2020-11-25 02:00:00 7.2 11 Sur 21 Sur 0 -- -- 85
2020-11-25 01:00:00 5.2 6 Sur 12 Sur 0 -- -- 89
2020-11-25 00:00:00 6.2 8 Sur 12 Sur 0 -- -- 87
2020-11-24 23:00:00 7 9 Sur 15 Sur 0 -- -- 85
2020-11-24 22:00:00 6.3 8 Sur 13 Sur 0 -- -- 85
2020-11-24 21:00:00 6.4 9 Sur 16 Sur 0 -- -- 86
2020-11-24 20:00:00 7.6 9 Sur 21 Sur 0 -- -- 82
2020-11-24 19:00:00 8.5 12 Sur 20 Sudoeste 0 -- -- 79
2020-11-24 18:00:00 10 12 Sudoeste 24 Sur 0 -- -- 72
2020-11-24 17:00:00 12.1 12 Sudoeste 24 Sudoeste 0 -- -- 64
2020-11-24 16:00:00 12.6 13 Sudoeste 27 Sudoeste 0 -- -- 64
2020-11-24 15:00:00 12.7 15 Sudoeste 24 Sudoeste 0 -- -- 65
2020-11-24 14:00:00 12.2 13 Sudoeste 24 Oeste 0 -- -- 67
2020-11-24 13:00:00 11.6 15 Oeste 22 Sudoeste 0 -- -- 71
2020-11-24 12:00:00 10.6 9 Oeste 14 Sudoeste 0 -- -- 77
2020-11-24 11:00:00 7.2 2 Oeste 6 Noroeste 0 -- -- 87
2020-11-24 10:00:00 3.7 0 Calma 3 Sudeste 0 -- -- 97
2020-11-24 09:00:00 1.8 0 Calma 6 Sudeste 0 -- -- 95
2020-11-24 08:00:00 1.4 0 Calma 8 Sudeste 0 -- -- 92
2020-11-24 07:00:00 1.9 3 Sudeste 6 Sudeste 0 -- -- 93
2020-11-24 06:00:00 2.3 4 Sudeste 9 Sudeste 0 -- -- 92
2020-11-24 05:00:00 2.7 6 Sudeste 8 Sudeste 0 -- -- 93
2020-11-24 04:00:00 2 4 Sudeste 6 Sudeste 0 -- -- 92
2020-11-24 03:00:00 2.4 0 Calma 6 Sudeste 0 -- -- 91
2020-11-24 02:00:00 2.8 4 Sudeste 5 Sudeste 0 -- -- 91
2020-11-24 01:00:00 3.6 3 Sudeste 6 Sudeste 0 -- -- 88
2020-11-24 00:00:00 4.8 3 Sur 6 Sudeste 0 -- -- 88
2020-11-23 23:00:00 4.8 5 Sudeste 8 Sudeste 0 -- -- 84
2020-11-23 22:00:00 5.4 4 Sudeste 9 Sudeste 0 -- -- 82
2020-11-23 21:00:00 7.2 4 Sudeste 12 Este 0 -- -- 71
2020-11-23 20:00:00 7.9 7 Este 12 Este 0 -- -- 64
2020-11-23 19:00:00 9.4 8 Este 10 Este 0 -- -- 61
2020-11-23 18:00:00 12.8 4 Nordeste 6 Nordeste 0 -- -- 58
2020-11-23 17:00:00 15.3 2 Oeste 8 Sudoeste 0 -- -- 49
2020-11-23 16:00:00 15.9 4 Sudoeste 9 Sudoeste 0 -- -- 44
2020-11-23 15:00:00 15.5 6 Sudoeste 11 Sudoeste 0 -- -- 48
2020-11-23 14:00:00 14.5 3 Este 10 Este 0 -- -- 56
2020-11-23 13:00:00 13 4 Este 10 Este 0 -- -- 62
2020-11-23 12:00:00 11.1 8 Nordeste 11 Nordeste 0 -- -- 68
2020-11-23 11:00:00 8.3 5 Nordeste 7 Nordeste 0 -- -- 81
2020-11-23 10:00:00 4.4 3 Nordeste 7 Nordeste 0 -- -- 94
2020-11-23 09:00:00 0.5 0 Calma 6 Este 0 -- -- 95
2020-11-23 08:00:00 0.3 3 Este 5 Este 0 -- -- 95
2020-11-23 07:00:00 0.5 0 Calma 5 Este 0 -- -- 92
2020-11-23 06:00:00 2.9 4 Sudeste 7 Sudeste 0 -- -- 95
2020-11-23 05:00:00 0.8 0 Calma 4 Sudeste 0 -- -- 94
2020-11-23 04:00:00 1.4 2 Sudeste 5 Sudeste 0 -- -- 94
2020-11-23 03:00:00 1.5 2 Sudeste 5 Sudeste 0 -- -- 92
2020-11-23 02:00:00 2.5 3 Sudeste 5 Sudeste 0 -- -- 93
2020-11-23 01:00:00 3 0 Calma 9 Sudeste 0 -- -- 88
2020-11-23 00:00:00 4.7 6 Sudeste 10 Sudeste 0 -- -- 88
2020-11-22 23:00:00 5.2 5 Sudeste 10 Sudeste 0 -- -- 86
2020-11-22 22:00:00 6.1 8 Sudeste 9 Sudeste 0 -- -- 84
2020-11-22 21:00:00 6.7 0 Calma 0 Calma 0 -- -- 82
2020-11-22 20:00:00 8.2 0 Calma 0 Calma 0 -- -- 79
2020-11-22 19:00:00 9.9 0 Calma 2 Noroeste 0 -- -- 76
2020-11-22 18:00:00 13.9 2 Noroeste 6 Noroeste 0 -- -- 59
2020-11-22 17:00:00 16.1 3 Oeste 10 Noroeste 0 -- -- 50
2020-11-22 16:00:00 16.2 5 Oeste 12 Oeste 0 -- -- 55
2020-11-22 15:00:00 16 6 Noroeste 12 Sudoeste 0 -- -- 54
2020-11-22 14:00:00 15.5 5 Oeste 13 Oeste 0 -- -- 53
2020-11-22 13:00:00 14.6 8 Sudoeste 14 Sudoeste 0 -- -- 53
2020-11-22 12:00:00 13.1 5 Sudeste 9 Este 0 -- -- 54
2020-11-22 11:00:00 10.4 5 Este 9 Este 0 -- -- 66
2020-11-22 10:00:00 6.2 0 Calma 12 Sudeste 0 -- -- 88
2020-11-22 09:00:00 2.1 0 Calma 11 Sudeste 0 -- -- 89
2020-11-22 08:00:00 2 8 Sudeste 12 Sudeste 0 -- -- 96
2020-11-22 07:00:00 0.5 0 Calma 3 Noroeste 0 -- -- 94
2020-11-22 06:00:00 1.2 0 Calma 2 Oeste 0 -- -- 92
2020-11-22 05:00:00 2.9 2 Sur 8 Sudeste 0 -- -- 88
2020-11-22 04:00:00 3.9 6 Sudeste 9 Sudeste 0 -- -- 87
2020-11-22 03:00:00 3.4 5 Sudeste 8 Sudeste 0 -- -- 90
2020-11-22 02:00:00 3.4 3 Sudeste 4 Sudeste 0 -- -- 93
2020-11-22 01:00:00 3.4 2 Sudeste 4 Sur 0 -- -- 91
2020-11-22 00:00:00 4.8 0 Calma 8 Sudoeste 0 -- -- 85
2020-11-21 23:00:00 4.9 4 Sur 6 Sur 0 -- -- 89
2020-11-21 22:00:00 5 0 Calma 4 Oeste 0 -- -- 85
2020-11-21 21:00:00 7.2 2 Sudeste 8 Este 0 -- -- 75
2020-11-21 20:00:00 8 5 Este 12 Este 0 -- -- 72
2020-11-21 19:00:00 9.2 4 Este 6 Este 0 -- -- 65
2020-11-21 18:00:00 11.8 4 Este 10 Nordeste 0 -- -- 59
2020-11-21 17:00:00 13.9 8 Nordeste 11 Nordeste 0 -- -- 54
2020-11-21 16:00:00 14 6 Nordeste 13 Nordeste 0 -- -- 52
2020-11-21 15:00:00 13.3 7 Nordeste 14 Nordeste 0 -- -- 55
2020-11-21 14:00:00 12.4 8 Nordeste 14 Nordeste 0 -- -- 58
2020-11-21 13:00:00 10.7 9 Nordeste 15 Este 0 -- -- 64
2020-11-21 12:00:00 8.7 10 Nordeste 17 Este 0 -- -- 72
2020-11-21 11:00:00 6.2 12 Nordeste 20 Nordeste 0 -- -- 82
2020-11-21 10:00:00 4.2 12 Nordeste 18 Nordeste 0 -- -- 88
2020-11-21 09:00:00 0.9 4 Nordeste 10 Nordeste 0 -- -- 96
2020-11-21 08:00:00 0 7 Nordeste 14 Nordeste 0 -- -- 93
2020-11-21 07:00:00 2.1 10 Este 17 Este 0 -- -- 90
2020-11-21 06:00:00 2.1 11 Este 16 Este 0 -- -- 91
2020-11-21 05:00:00 1.6 8 Este 11 Este 0 -- -- 93
2020-11-21 04:00:00 2 5 Nordeste 12 Nordeste 0 -- -- 92
2020-11-21 03:00:00 2.2 7 Nordeste 9 Nordeste 0 -- -- 92
2020-11-21 02:00:00 3.1 6 Nordeste 10 Norte 0 -- -- 86
2020-11-21 01:00:00 4.4 4 Nordeste 21 Nordeste 0 -- -- 85
2020-11-21 00:00:00 4.9 13 Nordeste 20 Nordeste 0 -- -- 86
2020-11-20 23:00:00 4.1 5 Nordeste 11 Norte 0 -- -- 86
2020-11-20 22:00:00 5.9 8 Nordeste 14 Nordeste 0 -- -- 81
2020-11-20 21:00:00 6.4 8 Este 24 Nordeste 0 -- -- 79
2020-11-20 20:00:00 7.1 12 Nordeste 18 Nordeste 0 -- -- 77
2020-11-20 19:00:00 7.3 8 Nordeste 13 Nordeste 0 -- -- 75
2020-11-20 18:00:00 10.2 10 Nordeste 28 Este 0 -- -- 63
2020-11-20 17:00:00 11.9 23 Nordeste 33 Nordeste 0 -- -- 54
2020-11-20 16:00:00 13.1 24 Nordeste 31 Nordeste 0 -- -- 52
2020-11-20 15:00:00 13.2 23 Nordeste 34 Este 0 -- -- 52
2020-11-20 14:00:00 11.8 22 Este 32 Este 0 -- -- 60
2020-11-20 13:00:00 10 22 Nordeste 31 Nordeste 0 -- -- 75
2020-11-20 12:00:00 9.1 19 Nordeste 26 Nordeste 0 -- -- 80
2020-11-20 11:00:00 7.7 17 Nordeste 26 Este 0 -- -- 87
2020-11-20 10:00:00 6.1 13 Este 21 Este 0 -- -- 91
2020-11-20 09:00:00 4.4 10 Nordeste 14 Nordeste 0 -- -- 97
2020-11-20 08:00:00 4.1 6 Nordeste 18 Este 0 -- -- 96
2020-11-20 07:00:00 5.2 13 Nordeste 21 Nordeste 0 -- -- 95
2020-11-20 06:00:00 5.4 13 Nordeste 20 Este 0 -- -- 96
2020-11-20 05:00:00 5.9 15 Nordeste 21 Nordeste 0 -- -- 95
2020-11-20 04:00:00 6.4 12 Este 23 Nordeste 0 -- -- 95
2020-11-20 03:00:00 7.5 16 Este 29 Nordeste 0 -- -- 93
2020-11-20 02:00:00 8.1 19 Nordeste 27 Este 0 -- -- 96
2020-11-20 01:00:00 8.3 11 Este 22 Nordeste 0 -- -- 96
2020-11-20 00:00:00 9.1 15 Nordeste 20 Este 0 -- -- 96
2020-11-19 23:00:00 8.8 7 Este 12 Este 0 -- -- 92
2020-11-19 22:00:00 9.6 9 Este 15 Este 0 -- -- 91
2020-11-19 21:00:00 10.5 9 Este 13 Este 0 -- -- 89
2020-11-19 20:00:00 11.2 5 Nordeste 9 Nordeste 0 -- -- 86
2020-11-19 19:00:00 12.9 5 Nordeste 8 Nordeste 0 -- -- 81
2020-11-19 18:00:00 15.7 6 Nordeste 12 Nordeste 0 -- -- 73
2020-11-19 17:00:00 18 9 Nordeste 15 Nordeste 0 -- -- 63
2020-11-19 16:00:00 18.6 9 Nordeste 19 Nordeste 0 -- -- 63
2020-11-19 15:00:00 18.8 12 Nordeste 20 Nordeste 0 -- -- 62
2020-11-19 14:00:00 18.2 10 Este 19 Este 0 -- -- 65
2020-11-19 13:00:00 16.8 13 Nordeste 24 Este 0 -- -- 71
2020-11-19 12:00:00 15.4 17 Este 26 Sudeste 0 -- -- 76
2020-11-19 11:00:00 12.5 13 Este 23 Este 0 -- -- 85
2020-11-19 10:00:00 10.2 17 Nordeste 24 Nordeste 0 -- -- 90
2020-11-19 09:00:00 7.2 6 Norte 15 Este 0 -- -- 92
2020-11-19 08:00:00 6.6 7 Nordeste 18 Este 0 -- -- 94
2020-11-19 07:00:00 7.8 14 Este 18 Este 0 -- -- 92
2020-11-19 06:00:00 7.6 5 Nordeste 10 Este 0 -- -- 92
2020-11-19 05:00:00 7.9 8 Nordeste 11 Nordeste 0 -- -- 94
2020-11-19 04:00:00 8.7 7 Este 17 Este 0 -- -- 93
2020-11-19 03:00:00 8.8 8 Nordeste 14 Este 0 -- -- 93
2020-11-19 02:00:00 8.4 3 Sudeste 11 Este 0 -- -- 91
2020-11-19 01:00:00 9.4 5 Este 8 Este 0 -- -- 89
2020-11-19 00:00:00 9.1 3 Sudeste 6 Noroeste 0 -- -- 91
2020-11-18 23:00:00 10.6 0 Calma 9 Sudeste 0 -- -- 85
2020-11-18 22:00:00 12.2 5 Sudeste 12 Sudeste 0 -- -- 81
2020-11-18 21:00:00 13.5 6 Sudeste 13 Sudeste 0 -- -- 79
2020-11-18 20:00:00 13.9 2 Sudeste 8 Este 0 -- -- 78
2020-11-18 19:00:00 14.3 5 Sudeste 8 Sudeste 0 -- -- 76
2020-11-18 18:00:00 17.7 3 Sudoeste 7 Sudoeste 0 -- -- 67
2020-11-18 17:00:00 20 5 Sudoeste 14 Oeste 0 -- -- 58
2020-11-18 16:00:00 20.6 9 Sudoeste 17 Oeste 0 -- -- 50
2020-11-18 15:00:00 20.8 9 Oeste 14 Oeste 0 -- -- 51
2020-11-18 14:00:00 19.9 6 Oeste 13 Sudoeste 0 -- -- 55
2020-11-18 13:00:00 19.1 5 Noroeste 9 Noroeste 0 -- -- 67
2020-11-18 12:00:00 16.9 2 Nordeste 4 Nordeste 0 -- -- 74
2020-11-18 11:00:00 13 0 Calma 4 Noroeste 0 -- -- 90
2020-11-18 10:00:00 9.5 0 Calma 4 Norte 0 -- -- 98
2020-11-18 09:00:00 5.4 4 Este 5 Este 0 -- -- 97
2020-11-18 08:00:00 5.1 0 Calma 4 Sudeste 0 -- -- 96
2020-11-18 07:00:00 4.8 0 Calma 3 Este 0 -- -- 95
2020-11-18 06:00:00 5.4 0 Calma 5 Este 0 -- -- 93
2020-11-18 05:00:00 5.4 3 Este 5 Este 0 -- -- 92
2020-11-18 04:00:00 5.9 0 Calma 4 Sudeste 0 -- -- 89
2020-11-18 03:00:00 7.2 2 Sudeste 9 Sudeste 0 -- -- 86
2020-11-18 02:00:00 7.6 4 Sudeste 7 Sudeste 0 -- -- 85
2020-11-18 01:00:00 8.7 4 Sur 6 Sur 0 -- -- 84
2020-11-18 00:00:00 8 3 Sur 4 Sur 0 -- -- 88
2020-11-17 23:00:00 8.2 0 Calma 2 Sudeste 0 -- -- 85
2020-11-17 22:00:00 8.6 0 Calma 4 Este 0 -- -- 84
2020-11-17 21:00:00 10 3 Este 6 Sur 0 -- -- 79
2020-11-17 20:00:00 12.5 5 Sur 9 Sudeste 0 -- -- 71
2020-11-17 19:00:00 14.4 6 Sur 10 Sur 0 -- -- 68
2020-11-17 18:00:00 17.3 4 Sudoeste 8 Sudoeste 0 -- -- 61
2020-11-17 17:00:00 19.8 6 Oeste 13 Sudoeste 0 -- -- 51
2020-11-17 16:00:00 20.3 4 Oeste 10 Noroeste 0 -- -- 54
2020-11-17 15:00:00 19.2 2 Oeste 9 Oeste 0 -- -- 55
2020-11-17 14:00:00 18 5 Oeste 10 Oeste 0 -- -- 51
2020-11-17 13:00:00 16.5 0 Calma 7 Oeste 0 -- -- 63
2020-11-17 12:00:00 14.8 0 Calma 6 Sudeste 0 -- -- 71
2020-11-17 11:00:00 11.9 0 Calma 3 Este 0 -- -- 82
2020-11-17 10:00:00 8 0 Calma 4 Sudeste 0 -- -- 97
2020-11-17 09:00:00 4.7 3 Sudeste 5 Sudeste 0 -- -- 100
2020-11-17 08:00:00 3.5 2 Sudeste 5 Este 0 -- -- 98
2020-11-17 07:00:00 4.3 4 Este 9 Sudeste 0 -- -- 98
2020-11-17 06:00:00 3.9 4 Este 5 Este 0 -- -- 98
2020-11-17 05:00:00 4.9 0 Calma 9 Este 0 -- -- 97
2020-11-17 04:00:00 4.4 0 Calma 4 Nordeste 0 -- -- 97
2020-11-17 03:00:00 5.2 0 Calma 8 Este 0 -- -- 97
2020-11-17 02:00:00 5.8 5 Este 6 Este 0 -- -- 96
2020-11-17 01:00:00 6 2 Este 5 Este 0 -- -- 95
2020-11-17 00:00:00 6.9 4 Este 6 Este 0 -- -- 96
2020-11-16 23:00:00 7.5 5 Este 7 Nordeste 0 -- -- 93
2020-11-16 22:00:00 8.8 5 Sudeste 10 Este 0 -- -- 92
2020-11-16 21:00:00 10.1 4 Sudeste 10 Este 0 -- -- 87
2020-11-16 20:00:00 11 7 Este 9 Este 0 -- -- 85
2020-11-16 19:00:00 12.1 0 Calma 3 Noroeste 0 -- -- 84
2020-11-16 18:00:00 15.1 2 Noroeste 5 Noroeste 0 -- -- 69
2020-11-16 17:00:00 15.9 3 Norte 8 Norte 0 -- -- 67
2020-11-16 16:00:00 16.2 2 Norte 9 Norte 0 -- -- 65
2020-11-16 15:00:00 15.8 0 Calma 6 Nordeste 0 -- -- 70
2020-11-16 14:00:00 14.9 4 Norte 10 Nordeste 0 -- -- 74
2020-11-16 13:00:00 14.7 3 Nordeste 13 Noroeste 0 -- -- 81
2020-11-16 12:00:00 13.6 8 Oeste 14 Noroeste 0 -- -- 83
2020-11-16 11:00:00 12.6 4 Sudeste 8 Sudeste 0 -- -- 97
2020-11-16 10:00:00 11.3 5 Sur 7 Sudeste 0 -- -- 99
2020-11-16 09:00:00 9.7 3 Sudeste 5 Sur 0 -- -- 99
2020-11-16 08:00:00 9.8 2 Sudoeste 4 Sudoeste 0 -- -- 97
2020-11-16 07:00:00 10.2 3 Oeste 6 Oeste 0 -- -- 98
2020-11-16 06:00:00 11.1 4 Sudoeste 7 Sudoeste 0 -- -- 98
2020-11-16 05:00:00 12.1 5 Oeste 12 Sudoeste 0 -- -- 98
2020-11-16 04:00:00 12.4 4 Sudoeste 10 Sudoeste 0 -- -- 96
2020-11-16 03:00:00 12.6 6 Sudoeste 14 Sudoeste 0 -- -- 96
2020-11-16 02:00:00 12.7 8 Sudoeste 14 Sudoeste 0 -- -- 95
2020-11-16 01:00:00 13 7 Sudoeste 12 Sudoeste 0 -- -- 94
2020-11-16 00:00:00 13.1 9 Sudoeste 19 Sudoeste 0 -- -- 94
2020-11-15 23:00:00 13.7 10 Oeste 20 Sudoeste 0 -- -- 90
2020-11-15 22:00:00 13.8 12 Sudoeste 27 Sudoeste 0 -- -- 89
2020-11-15 21:00:00 13.7 12 Sudoeste 28 Sudoeste 0 -- -- 90
2020-11-15 20:00:00 14.3 15 Sudoeste 29 Sudoeste 0 -- -- 88
2020-11-15 19:00:00 14.7 18 Sudoeste 30 Sur 0 -- -- 87
2020-11-15 18:00:00 15 17 Sudoeste 33 Sudoeste 0 -- -- 86
2020-11-15 17:00:00 15.4 21 Sudoeste 38 Sudoeste 0 -- -- 84
2020-11-15 16:00:00 16.1 24 Sudoeste 42 Sudoeste 0 -- -- 82
2020-11-15 15:00:00 16.5 23 Sudoeste 42 Sudoeste 0 -- -- 81
2020-11-15 14:00:00 16.2 22 Sudoeste 37 Sudoeste 0 -- -- 83
2020-11-15 13:00:00 15.4 15 Sudoeste 37 Sudoeste 0 -- -- 87
2020-11-15 12:00:00 14.9 15 Sudoeste 37 Sudoeste 0 -- -- 91
2020-11-15 11:00:00 15 18 Sudoeste 35 Sudoeste 0 -- -- 88
2020-11-15 10:00:00 14.6 25 Sudoeste 41 Sudoeste 0 -- -- 88
2020-11-15 09:00:00 13.8 18 Sudoeste 32 Sudoeste 0 -- -- 92
2020-11-15 08:00:00 14 18 Sudoeste 39 Sudoeste 0 -- -- 89
2020-11-15 07:00:00 14.2 20 Sudoeste 32 Sudoeste 0 -- -- 88
2020-11-15 06:00:00 13.9 14 Sudoeste 22 Sudoeste 0 -- -- 88
2020-11-15 05:00:00 13.7 17 Sudoeste 29 Sudoeste 0 -- -- 88
2020-11-15 04:00:00 12.3 9 Sur 15 Sur 0 -- -- 91
2020-11-15 03:00:00 11.6 5 Sur 9 Sur 0 -- -- 93
2020-11-15 02:00:00 11.8 5 Sur 13 Sur 0 -- -- 91
2020-11-15 01:00:00 11.5 4 Sudeste 12 Sur 0 -- -- 91
2020-11-15 00:00:00 11.7 8 Sudeste 13 Sur 0 -- -- 89
2020-11-14 23:00:00 11.8 8 Sur 15 Sur 0 -- -- 86
2020-11-14 22:00:00 11.6 11 Sudeste 21 Sur 0 -- -- 88
2020-11-14 21:00:00 12.1 9 Sur 26 Sur 0 -- -- 89
2020-11-14 20:00:00 12.7 14 Sudoeste 25 Sudoeste 0 -- -- 88
2020-11-14 19:00:00 13.2 15 Sudoeste 28 Sudoeste 0 -- -- 85
2020-11-14 18:00:00 13.3 12 Sur 23 Sudoeste 0 -- -- 85
2020-11-14 17:00:00 14.2 13 Sur 22 Sur 0 -- -- 83
2020-11-14 16:00:00 14.1 12 Sudoeste 20 Oeste 0 -- -- 85
2020-11-14 15:00:00 14.7 14 Sudoeste 24 Sudoeste 0 -- -- 80
2020-11-14 14:00:00 15.3 15 Sudoeste 27 Sur 0 -- -- 79
2020-11-14 13:00:00 15.2 17 Sur 30 Sur 0 -- -- 77
2020-11-14 12:00:00 12.7 4 Oeste 10 Noroeste 0 -- -- 92
2020-11-14 11:00:00 11.9 2 Norte 5 Noroeste 0 -- -- 94
2020-11-14 10:00:00 9.5 0 Calma 6 Este 0 -- -- 97
2020-11-14 09:00:00 8.8 3 Sudeste 7 Sudeste 0 -- -- 97
2020-11-14 08:00:00 8 3 Este 5 Sudeste 0 -- -- 97
2020-11-14 07:00:00 7.2 3 Oeste 6 Oeste 0 -- -- 95
2020-11-14 06:00:00 7.9 3 Norte 5 Sudeste 0 -- -- 93
2020-11-14 05:00:00 8.7 0 Calma 6 Sudeste 0 -- -- 90
2020-11-14 04:00:00 10.5 4 Sudeste 12 Sudeste 0 -- -- 88
2020-11-14 03:00:00 10.2 8 Sudeste 12 Sur 0 -- -- 88
2020-11-14 02:00:00 9.1 3 Sudeste 6 Sudeste 0 -- -- 90
2020-11-14 01:00:00 9 3 Sur 8 Este 0 -- -- 86
2020-11-14 00:00:00 9.8 4 Este 8 Nordeste 0 -- -- 86
2020-11-13 23:00:00 9.7 5 Nordeste 8 Nordeste 0 -- -- 90
2020-11-13 22:00:00 9.4 0 Calma 3 Nordeste 0 -- -- 91
2020-11-13 21:00:00 10.1 0 Calma 2 Este 0 -- -- 89
2020-11-13 20:00:00 10.4 0 Calma 4 Este 0 -- -- 87
2020-11-13 19:00:00 11.1 0 Calma 6 Sudeste 0 -- -- 82
2020-11-13 18:00:00 12.2 0 Calma 6 Nordeste 0 -- -- 78
2020-11-13 17:00:00 14 4 Norte 8 Noroeste 0 -- -- 70
2020-11-13 16:00:00 14.8 0 Calma 9 Nordeste 0 -- -- 61
2020-11-13 15:00:00 14.3 3 Sudoeste 10 Sudeste 0 -- -- 63
2020-11-13 14:00:00 13.6 5 Sudeste 12 Sudeste 0 -- -- 67
2020-11-13 13:00:00 12.8 9 Sudeste 19 Este 0 -- -- 74
2020-11-13 12:00:00 11.5 10 Este 14 Este 0 -- -- 81
2020-11-13 11:00:00 9.9 4 Este 8 Este 0 -- -- 88
2020-11-13 10:00:00 8.8 4 Sudeste 9 Sudeste 0 -- -- 92
2020-11-13 09:00:00 5.8 3 Sudeste 4 Este 0 -- -- 96
2020-11-13 08:00:00 6.5 0 Calma 2 Oeste 0 -- -- 94
2020-11-13 07:00:00 7.5 4 Sudeste 9 Sudeste 0 -- -- 93
2020-11-13 06:00:00 7.1 5 Sudeste 7 Sudeste 0 -- -- 96
2020-11-13 05:00:00 6.1 0 Calma 2 Sudeste 0 -- -- 96
2020-11-13 04:00:00 6 0 Calma 8 Sudeste 0 -- -- 94
2020-11-13 03:00:00 7.3 2 Sudeste 8 Sudeste 0 -- -- 94
2020-11-13 02:00:00 8.1 5 Sudeste 7 Sudeste 0 -- -- 94
2020-11-13 01:00:00 8.4 0 Calma 3 Sudeste 0 -- -- 94
2020-11-13 00:00:00 8.9 2 Sudeste 3 Sudeste 0 -- -- 93
2020-11-12 23:00:00 9.4 0 Calma 5 Oeste 0 -- -- 91
2020-11-12 22:00:00 9.9 3 Oeste 6 Oeste 0 -- -- 88
2020-11-12 21:00:00 10.5 4 Sudoeste 5 Sudoeste 0 -- -- 85
2020-11-12 20:00:00 11.3 2 Sudoeste 8 Sudoeste 0 -- -- 81
2020-11-12 19:00:00 12.2 0 Calma 0 Calma 0 -- -- 81
2020-11-12 18:00:00 13.7 0 Calma 7 Norte 0 -- -- 71
2020-11-12 17:00:00 14.9 6 Norte 8 Norte 0 -- -- 62
2020-11-12 16:00:00 15.1 0 Calma 7 Norte 0 -- -- 56
2020-11-12 15:00:00 15 5 Norte 9 Norte 0 -- -- 60
2020-11-12 14:00:00 14.6 3 Este 8 Nordeste 0 -- -- 61
2020-11-12 13:00:00 14.2 4 Nordeste 9 Nordeste 0 -- -- 68
2020-11-12 12:00:00 12.6 5 Nordeste 8 Este 0 -- -- 76
2020-11-12 11:00:00 10.9 4 Sudeste 9 Este 0 -- -- 82
2020-11-12 10:00:00 7.5 5 Este 8 Este 0 -- -- 97
2020-11-12 09:00:00 5.4 0 Calma 5 Oeste 0 -- -- 96
2020-11-12 08:00:00 6.2 0 Calma 9 Sudeste 0 -- -- 95
2020-11-12 07:00:00 7.5 4 Sudeste 11 Este 0 -- -- 94
2020-11-12 06:00:00 6.9 6 Este 9 Este 0 -- -- 95
2020-11-12 05:00:00 7.3 4 Norte 9 Sudeste 0 -- -- 93
2020-11-12 04:00:00 8.1 3 Sudeste 14 Sudeste 0 -- -- 92
2020-11-12 03:00:00 7.8 2 Sudeste 7 Sudeste 0 -- -- 94
2020-11-12 02:00:00 8.2 4 Sur 7 Sudeste 0 -- -- 94
2020-11-12 01:00:00 8.1 0 Calma 6 Sudeste 0 -- -- 93
2020-11-12 00:00:00 8.5 3 Sudeste 9 Sudeste 0 -- -- 93
2020-11-11 23:00:00 7.8 0 Calma 4 Este 0 -- -- 93
2020-11-11 22:00:00 8.5 2 Oeste 8 Sudeste 0 -- -- 90
2020-11-11 21:00:00 10.2 5 Sudeste 10 Sudeste 0 -- -- 87
2020-11-11 20:00:00 10.5 2 Sudoeste 6 Sur 0 -- -- 89
2020-11-11 19:00:00 11.6 3 Sudoeste 6 Sudoeste 0 -- -- 82
2020-11-11 18:00:00 13 5 Sudoeste 14 Sudoeste 0 -- -- 77
2020-11-11 17:00:00 14.9 9 Sudoeste 22 Sudoeste 0 -- -- 68
2020-11-11 16:00:00 15.3 12 Sudoeste 24 Sur 0 -- -- 68
2020-11-11 15:00:00 14.8 13 Sudoeste 23 Sudoeste 0 -- -- 67
2020-11-11 14:00:00 12.8 9 Oeste 14 Oeste 0 -- -- 80
2020-11-11 13:00:00 10.8 5 Oeste 12 Oeste 0 -- -- 99
2020-11-11 12:00:00 8.2 2 Norte 9 Noroeste 0 -- -- 100
2020-11-11 11:00:00 6.3 5 Este 9 Nordeste 0 -- -- 100
2020-11-11 10:00:00 4.9 6 Nordeste 10 Nordeste 0 -- -- 100
2020-11-11 09:00:00 4.4 4 Nordeste 9 Nordeste 0 -- -- 100
2020-11-11 08:00:00 4.5 5 Nordeste 8 Este 0 -- -- 100
2020-11-11 07:00:00 4.8 6 Este 12 Este 0 -- -- 100
2020-11-11 06:00:00 6 7 Este 10 Este 0 -- -- 100
2020-11-11 05:00:00 6.2 5 Este 11 Este 0 -- -- 100
2020-11-11 04:00:00 6.5 10 Este 15 Este 0 -- -- 100
2020-11-11 03:00:00 6.4 6 Este 15 Este 0 -- -- 100
2020-11-11 02:00:00 7.1 10 Este 18 Este 0 -- -- 99
2020-11-11 01:00:00 7.8 10 Este 19 Este 0 -- -- 99
2020-11-11 00:00:00 8.3 12 Este 18 Este 0 -- -- 99
2020-11-10 23:00:00 8.6 7 Nordeste 15 Este 0 -- -- 99
2020-11-10 22:00:00 8.7 9 Este 25 Este 0 -- -- 98
2020-11-10 21:00:00 8.6 14 Este 23 Este 0 -- -- 97
2020-11-10 20:00:00 9.4 11 Nordeste 18 Este 0 -- -- 93
2020-11-10 19:00:00 10.2 7 Nordeste 9 Nordeste 0 -- -- 91
2020-11-10 18:00:00 11.6 5 Nordeste 14 Este 0 -- -- 85
2020-11-10 17:00:00 13.3 8 Nordeste 13 Nordeste 0 -- -- 80
2020-11-10 16:00:00 13.9 8 Nordeste 14 Norte 0 -- -- 76
2020-11-10 15:00:00 13.4 8 Nordeste 14 Nordeste 0 -- -- 83
2020-11-10 14:00:00 12.1 8 Nordeste 17 Nordeste 0 -- -- 90
2020-11-10 13:00:00 10.4 8 Nordeste 14 Este 0 -- -- 97
2020-11-10 12:00:00 9.3 7 Nordeste 14 Nordeste 0 -- -- 99
2020-11-10 11:00:00 8.4 7 Norte 10 Nordeste 0 -- -- 100
2020-11-10 10:00:00 8.1 5 Nordeste 9 Este 0 -- -- 99
2020-11-10 09:00:00 7.9 7 Este 13 Este 0 -- -- 99
2020-11-10 08:00:00 8.1 7 Este 13 Este 0 -- -- 99
2020-11-10 07:00:00 8.1 4 Nordeste 9 Este 0 -- -- 99
2020-11-10 06:00:00 8.4 3 Sudeste 9 Este 0 -- -- 99
2020-11-10 05:00:00 8.7 4 Sur 6 Sur 0 -- -- 99
2020-11-10 04:00:00 8.6 2 Sudeste 4 Sudeste 0 -- -- 99
2020-11-10 03:00:00 8.9 2 Sudoeste 5 Sudoeste 0 -- -- 99
2020-11-10 02:00:00 8.6 0 Calma 5 Sudoeste 0.2 -- -- 98
2020-11-10 01:00:00 8.1 3 Sudoeste 10 Sur 0 -- -- 98
2020-11-10 00:00:00 7.7 5 Sudeste 8 Sur 0 -- -- 96
2020-11-09 23:00:00 8.3 6 Sur 8 Sur 0 -- -- 95
2020-11-09 22:00:00 8.8 2 Sur 5 Sur 0 -- -- 94
2020-11-09 21:00:00 9.8 2 Sur 8 Sur 0 -- -- 93
2020-11-09 20:00:00 10.3 5 Sudeste 6 Sudeste 0 -- -- 91
2020-11-09 19:00:00 10.9 4 Oeste 13 Noroeste 0 -- -- 87
2020-11-09 18:00:00 12.6 3 Sudoeste 8 Sudoeste 0 -- -- 79
2020-11-09 17:00:00 13.1 3 Norte 18 Oeste 0 -- -- 80
2020-11-09 16:00:00 13.7 12 Noroeste 18 Noroeste 0 -- -- 79
2020-11-09 15:00:00 13.6 12 Oeste 22 Oeste 0 -- -- 75
2020-11-09 14:00:00 13.3 6 Oeste 19 Sudoeste 0 -- -- 76
2020-11-09 13:00:00 12.7 10 Sudoeste 21 Sudoeste 0 -- -- 79
2020-11-09 12:00:00 12.5 10 Sudoeste 21 Sudoeste 0 -- -- 81
2020-11-09 11:00:00 11.5 14 Sudoeste 22 Sudoeste 0 -- -- 88
2020-11-09 10:00:00 10.1 9 Sudoeste 16 Sudoeste 0 -- -- 97
2020-11-09 09:00:00 7.9 3 Sur 6 Sur 0 -- -- 97
2020-11-09 08:00:00 7.5 4 Sur 8 Sur 0 -- -- 97
2020-11-09 07:00:00 7.5 3 Oeste 10 Sur 0 -- -- 95
2020-11-09 06:00:00 8.6 8 Sur 11 Sur 0 -- -- 96
2020-11-09 05:00:00 9.1 7 Sur 14 Sur 0 -- -- 97
2020-11-09 04:00:00 9.5 7 Sur 12 Sudoeste 0 -- -- 98
2020-11-09 03:00:00 9.2 3 Sur 6 Sudeste 0 -- -- 98
2020-11-09 02:00:00 9.3 4 Sudeste 6 Este 0.2 -- -- 98
2020-11-09 01:00:00 9.8 2 Sudeste 5 Este 0 -- -- 97
2020-11-09 00:00:00 10.6 4 Sudeste 7 Sudoeste 0.4 -- -- 97
2020-11-08 23:00:00 10.4 4 Sudeste 8 Sudeste 4.8 -- -- 98
2020-11-08 22:00:00 10.3 3 Noroeste 12 Este 5 -- -- 97
2020-11-08 21:00:00 10.4 6 Nordeste 10 Nordeste 0.8 -- -- 97
2020-11-08 20:00:00 10.6 6 Este 8 Este 0.4 -- -- 96
2020-11-08 19:00:00 10.6 0 Calma 10 Oeste 1 -- -- 96
2020-11-08 18:00:00 10.5 8 Oeste 18 Noroeste 3.6 -- -- 94
2020-11-08 17:00:00 12.2 5 Nordeste 21 Sur 0.6 -- -- 90
2020-11-08 16:00:00 14 15 Sudoeste 27 Sur 0 -- -- 77
2020-11-08 15:00:00 13.9 14 Sur 32 Sur 0 -- -- 78
2020-11-08 14:00:00 13.7 13 Sur 34 Sur 0.2 -- -- 82
2020-11-08 13:00:00 13.1 18 Sudoeste 40 Sur 0.2 -- -- 83
2020-11-08 12:00:00 13.7 17 Sur 36 Sur 0 -- -- 79
2020-11-08 11:00:00 13.7 21 Sur 34 Sudeste 0 -- -- 78
2020-11-08 10:00:00 12.4 24 Sur 31 Sur 0 -- -- 83
2020-11-08 09:00:00 10.3 17 Sudeste 27 Sudeste 0 -- -- 88
2020-11-08 08:00:00 10.4 17 Sudeste 27 Sur 0 -- -- 85
2020-11-08 07:00:00 10.4 12 Sudeste 20 Sudeste 0 -- -- 85
2020-11-08 06:00:00 10.3 9 Sudeste 31 Sur 0 -- -- 86
2020-11-08 05:00:00 11.2 21 Sur 34 Sur 0 -- -- 82
2020-11-08 04:00:00 11 16 Sur 23 Sur 0 -- -- 84
2020-11-08 03:00:00 10.8 14 Sur 21 Sur 0 -- -- 86
2020-11-08 02:00:00 10.9 10 Sur 20 Sur 0 -- -- 83
2020-11-08 01:00:00 9.9 4 Sudeste 19 Este 0 -- -- 85
2020-11-08 00:00:00 11.3 12 Sur 23 Sur 0 -- -- 80
2020-11-07 23:00:00 11.1 6 Sudeste 21 Sur 0 -- -- 82
2020-11-07 22:00:00 10.7 7 Sur 16 Sur 0 -- -- 84
2020-11-07 21:00:00 10.3 9 Sudeste 14 Sur 0 -- -- 86
2020-11-07 20:00:00 10.8 4 Sudeste 18 Sur 0 -- -- 83
2020-11-07 19:00:00 11.6 11 Sur 27 Sur 0 -- -- 79
2020-11-07 18:00:00 12.3 15 Sur 26 Sur 0 -- -- 76
2020-11-07 17:00:00 13.7 18 Sudoeste 38 Sur 0 -- -- 70
2020-11-07 16:00:00 13.1 15 Sudoeste 33 Sudoeste 0 -- -- 75
2020-11-07 15:00:00 13.8 20 Sudoeste 36 Sudoeste 0 -- -- 72
2020-11-07 14:00:00 13.3 24 Sudoeste 40 Sudoeste 0 -- -- 72
2020-11-07 13:00:00 12.6 16 Sudoeste 30 Sur 0 -- -- 85
2020-11-07 12:00:00 12.3 20 Sudoeste 31 Sur 0 -- -- 86
2020-11-07 11:00:00 11.9 14 Sudoeste 23 Sudoeste 0 -- -- 86
2020-11-07 10:00:00 10.7 10 Sudoeste 19 Sudoeste 0 -- -- 93
2020-11-07 09:00:00 9.4 6 Sur 9 Sudoeste 0 -- -- 96
2020-11-07 08:00:00 9.4 3 Sudoeste 8 Sudoeste 0 -- -- 96
2020-11-07 07:00:00 9.7 4 Sudoeste 9 Sudoeste 0 -- -- 94
2020-11-07 06:00:00 9.7 4 Sudeste 8 Sur 0 -- -- 95
2020-11-07 05:00:00 10.1 2 Sudoeste 7 Sur 0.2 -- -- 96
2020-11-07 04:00:00 10.2 4 Nordeste 6 Nordeste 0.2 -- -- 96
2020-11-07 03:00:00 10.3 4 Nordeste 10 Sudeste 0.4 -- -- 95
2020-11-07 02:00:00 10.6 2 Sur 24 Este 0.8 -- -- 94
2020-11-07 01:00:00 11 6 Sudeste 18 Sur 0.4 -- -- 90
2020-11-07 00:00:00 11.1 9 Sudeste 19 Sur 0.4 -- -- 89
2020-11-06 23:00:00 11.4 3 Sur 18 Este 0.2 -- -- 85
2020-11-06 22:00:00 11.3 10 Sudeste 37 Sur 0.2 -- -- 87
2020-11-06 21:00:00 11.3 17 Sur 40 Sudoeste 1 -- -- 84
2020-11-06 20:00:00 11.5 21 Sudoeste 51 Sur 0.8 -- -- 86
2020-11-06 19:00:00 15.1 21 Sudeste 54 Sudeste 0 -- -- 67
2020-11-06 18:00:00 16.5 31 Sudeste 53 Sudeste 0 -- -- 59
2020-11-06 17:00:00 16.8 21 Sudeste 41 Sudeste 0 -- -- 61
2020-11-06 16:00:00 17.1 26 Sudeste 45 Sur 0 -- -- 62
2020-11-06 15:00:00 17.2 24 Sudeste 50 Sudeste 0 -- -- 62
2020-11-06 14:00:00 17.4 22 Sur 43 Sur 0 -- -- 60
2020-11-06 13:00:00 15.1 13 Sudeste 52 Este 0 -- -- 76
2020-11-06 12:00:00 13.8 27 Este 47 Este 0 -- -- 78
2020-11-06 11:00:00 13.5 25 Este 38 Este 0.2 -- -- 76
2020-11-06 10:00:00 12.1 15 Este 23 Este 0 -- -- 83
2020-11-06 09:00:00 10.4 12 Este 17 Sudeste 0 -- -- 91
2020-11-06 08:00:00 11.8 14 Sudeste 30 Sudeste 0 -- -- 82
2020-11-06 07:00:00 10.2 18 Sudeste 28 Sudeste 0 -- -- 91
2020-11-06 06:00:00 9.4 15 Este 26 Este 0 -- -- 93
2020-11-06 05:00:00 8.7 15 Este 23 Este 0 -- -- 94
2020-11-06 04:00:00 10 7 Sur 44 Sudoeste 2 -- -- 90
2020-11-06 03:00:00 10.7 21 Sur 49 Sur 2.8 -- -- 88
2020-11-06 02:00:00 8.4 10 Este 14 Este 0 -- -- 93
2020-11-06 01:00:00 8 12 Este 21 Este 0 -- -- 93
2020-11-06 00:00:00 8.6 17 Este 24 Este 0 -- -- 93
2020-11-05 23:00:00 8.4 12 Este 18 Este 0 -- -- 92
2020-11-05 22:00:00 8.9 16 Este 22 Sudeste 0 -- -- 91
2020-11-05 21:00:00 9.1 9 Este 14 Este 0 -- -- 93
2020-11-05 20:00:00 9.7 9 Este 22 Este 0.2 -- -- 91
2020-11-05 19:00:00 10.1 9 Este 31 Sur 2.8 -- -- 92
2020-11-05 18:00:00 12.3 5 Sur 11 Sur 0 -- -- 92
2020-11-05 17:00:00 12.6 5 Este 10 Nordeste 0.4 -- -- 91
2020-11-05 16:00:00 13 9 Este 14 Sudeste 0 -- -- 88
2020-11-05 15:00:00 13.3 10 Sudeste 28 Este 0.4 -- -- 85
2020-11-05 14:00:00 13.8 18 Este 27 Este 0 -- -- 80
2020-11-05 13:00:00 12.1 13 Este 25 Este 0.2 -- -- 88
2020-11-05 12:00:00 11.6 15 Este 38 Este 0 -- -- 83
2020-11-05 11:00:00 11.8 26 Este 45 Nordeste 0 -- -- 81
2020-11-05 10:00:00 10.9 21 Nordeste 40 Este 0 -- -- 83
2020-11-05 09:00:00 10.6 24 Este 35 Este 0 -- -- 82
2020-11-05 08:00:00 8.5 19 Nordeste 37 Este 0 -- -- 88
2020-11-05 07:00:00 7.9 23 Nordeste 42 Nordeste 0 -- -- 90
2020-11-05 06:00:00 8 24 Nordeste 43 Nordeste 0 -- -- 90
2020-11-05 05:00:00 8 24 Este 39 Nordeste 0 -- -- 91
2020-11-05 04:00:00 7.1 22 Nordeste 38 Nordeste 0 -- -- 94
2020-11-05 03:00:00 6.8 29 Nordeste 39 Nordeste 0 -- -- 93
2020-11-05 02:00:00 6.4 29 Nordeste 42 Nordeste 0.6 -- -- 93
2020-11-05 01:00:00 6.9 29 Nordeste 40 Nordeste 0.6 -- -- 93
2020-11-05 00:00:00 7.1 26 Nordeste 44 Este 0.2 -- -- 92
2020-11-04 23:00:00 7.2 28 Este 42 Nordeste 0.2 -- -- 91
2020-11-04 22:00:00 6.9 27 Nordeste 44 Este 0 -- -- 90
2020-11-04 21:00:00 6.4 24 Este 43 Este 0 -- -- 87
2020-11-04 20:00:00 6.3 31 Nordeste 46 Este 0 -- -- 85
2020-11-04 19:00:00 6.7 31 Nordeste 41 Nordeste 0 -- -- 88
2020-11-04 18:00:00 6.7 26 Nordeste 41 Este 0 -- -- 86
2020-11-04 17:00:00 7.8 24 Este 49 Nordeste 0 -- -- 83
2020-11-04 16:00:00 8.2 30 Nordeste 46 Nordeste 0 -- -- 77
2020-11-04 15:00:00 8.3 28 Nordeste 42 Nordeste 0 -- -- 74
2020-11-04 14:00:00 7.4 24 Nordeste 35 Este 0 -- -- 80
2020-11-04 13:00:00 7.2 20 Nordeste 34 Nordeste 0 -- -- 76
2020-11-04 12:00:00 6.4 26 Nordeste 35 Nordeste 0 -- -- 79
2020-11-04 11:00:00 5.6 26 Nordeste 34 Nordeste 0 -- -- 82
2020-11-04 10:00:00 4.5 22 Nordeste 34 Nordeste 0 -- -- 86
2020-11-04 09:00:00 3.1 14 Nordeste 21 Nordeste 0 -- -- 93
2020-11-04 08:00:00 2.1 11 Nordeste 19 Nordeste 0 -- -- 94
2020-11-04 07:00:00 2.6 14 Nordeste 22 Nordeste 0 -- -- 93
2020-11-04 06:00:00 3.6 18 Nordeste 28 Nordeste 0 -- -- 90
2020-11-04 05:00:00 4.1 16 Nordeste 25 Nordeste 0 -- -- 90
2020-11-04 04:00:00 3.8 12 Nordeste 23 Nordeste 0 -- -- 91
2020-11-04 03:00:00 4.6 15 Nordeste 24 Nordeste 0 -- -- 90
2020-11-04 02:00:00 5.3 17 Nordeste 30 Nordeste 0 -- -- 88
2020-11-04 01:00:00 6 21 Nordeste 33 Nordeste 0 -- -- 88
2020-11-04 00:00:00 6.6 19 Nordeste 33 Nordeste 0 -- -- 88
2020-11-03 23:00:00 7.3 17 Nordeste 27 Nordeste 0 -- -- 85
2020-11-03 22:00:00 7.8 11 Nordeste 21 Este 0 -- -- 82
2020-11-03 21:00:00 8.7 12 Este 26 Nordeste 0 -- -- 80
2020-11-03 20:00:00 9.6 18 Nordeste 27 Nordeste 0 -- -- 75
2020-11-03 19:00:00 9.7 10 Nordeste 19 Nordeste 0 -- -- 72
2020-11-03 18:00:00 12.1 14 Nordeste 28 Nordeste 0 -- -- 63
2020-11-03 17:00:00 13.4 21 Nordeste 30 Nordeste 0 -- -- 64
2020-11-03 16:00:00 13.7 20 Nordeste 34 Nordeste 0 -- -- 67
2020-11-03 15:00:00 13.6 22 Nordeste 36 Nordeste 0 -- -- 71
2020-11-03 14:00:00 12.6 24 Nordeste 39 Nordeste 0 -- -- 75
2020-11-03 13:00:00 11.8 23 Nordeste 38 Nordeste 0 -- -- 77
2020-11-03 12:00:00 10.8 23 Nordeste 32 Nordeste 0 -- -- 79
2020-11-03 11:00:00 9.3 17 Nordeste 33 Nordeste 0 -- -- 79
2020-11-03 10:00:00 8.2 11 Norte 15 Nordeste 0 -- -- 87
2020-11-03 09:00:00 5.8 3 Norte 5 Norte 0 -- -- 93
2020-11-03 08:00:00 6.3 3 Norte 5 Noroeste 0 -- -- 91
2020-11-03 07:00:00 6.7 4 Noroeste 8 Noroeste 0 -- -- 90
2020-11-03 06:00:00 8 5 Noroeste 10 Noroeste 0 -- -- 86
2020-11-03 05:00:00 9.1 8 Oeste 15 Oeste 0 -- -- 83
2020-11-03 04:00:00 9.8 9 Oeste 18 Oeste 0 -- -- 85
2020-11-03 03:00:00 10.6 9 Oeste 19 Oeste -- -- -- 86
2020-11-03 02:00:00 12.1 11 Noroeste 22 Noroeste 0 -- -- 91
2020-11-03 01:00:00 13.6 15 Noroeste 21 Noroeste 0 -- -- 94
2020-11-03 00:00:00 14.6 10 Oeste 16 Oeste 0 -- -- 93
2020-11-02 23:00:00 14.6 0 Calma 6 Oeste 0 -- -- 91
2020-11-02 22:00:00 14.7 5 Sudoeste 8 Sudoeste 0 -- -- 90
2020-11-02 21:00:00 14.2 5 Sudoeste 7 Sudoeste 0 -- -- 89
2020-11-02 20:00:00 14.8 4 Sudoeste 6 Sudoeste 0 -- -- 85
2020-11-02 19:00:00 15.5 2 Oeste 5 Oeste 0 -- -- 82
2020-11-02 18:00:00 16.9 3 Oeste 14 Noroeste 0 -- -- 75
2020-11-02 17:00:00 18 9 Noroeste 14 Oeste 0 -- -- 70
2020-11-02 16:00:00 18.1 6 Sudoeste 12 Sur 0 -- -- 69
2020-11-02 15:00:00 18.1 4 Sur 9 Sur 0 -- -- 68
2020-11-02 14:00:00 17.8 0 Calma 11 Sur 0 -- -- 68
2020-11-02 13:00:00 17.2 6 Sur 13 Sudoeste 0 -- -- 70
2020-11-02 12:00:00 16.5 6 Sudoeste 16 Sudoeste 0 -- -- 77
2020-11-02 11:00:00 14.9 8 Sur 14 Sur 0 -- -- 90
2020-11-02 10:00:00 14 5 Sur 9 Sur 0 -- -- 96
2020-11-02 09:00:00 12.9 3 Sur 6 Sur 0 -- -- 97
2020-11-02 08:00:00 12.5 4 Sur 9 Sur 0 -- -- 96
2020-11-02 07:00:00 13.1 5 Sur 10 Sudoeste 0 -- -- 98
2020-11-02 06:00:00 13.1 3 Sudoeste 5 Sudoeste 0 -- -- 98
2020-11-02 05:00:00 13.1 4 Sudoeste 8 Sudoeste 0 -- -- 98
2020-11-02 04:00:00 13.1 4 Sudoeste 6 Sudoeste 0 -- -- 98
2020-11-02 03:00:00 12.9 4 Sur 8 Sudoeste 0 -- -- 98
2020-11-02 02:00:00 13.1 3 Sudoeste 4 Sudoeste 0 -- -- 98
2020-11-02 01:00:00 13.2 3 Oeste 7 Oeste 0 -- -- 97
2020-11-02 00:00:00 12.8 0 Calma 5 Oeste 0 -- -- 96